»·PEaware :: N333ZS KLAX-KSAN

N333ZS :: KLAX-KSAN

FLIGHT INFORMATION

Flight Status: Arrived
Operator: Privately registered:
United States
More flights under this callsign
Pilot: Judd H. (29974)
Aircraft: CESSNA 182 SKYLANE
(C182)
More flights by this aircraft type
Origin: KLAX Los Angeles Intl
United States
Destination: KSAN San Diego Intl-Lindbergh
United States
More flights between these airports :: More routes between these airports
Route: +SXC
File this flight plan on PilotEdge
Remarks:
Altitude:
(Current/Filed)
7,500ft
Speed:
(Current/Filed)
120kts
Departed: 14-Aug-20 07:14 PM
Arrived: 14-Aug-20 08:11 PM
Distance/Time
Traveled:
95nm/0:57
Distance/Time
To Go:
Arrived

Flight Plot

Page will automatically refresh every two minutes.

Flight plan parsing failed; only flown route is shown


Map Options




Map Legend


Flown Route
Filed Route
Departure Airport
Arrival Airport
Navaid (VOR, NDB)
Fix

Horizontal Profiles

Position Reports

Time Latitude Longitude Heading Altitude Ground
Speed
14-Aug-20 18:52 33.941532 -118.394094 269 129ft 0kts
14-Aug-20 18:53 33.941532 -118.394094 269 129ft 0kts
14-Aug-20 18:54 33.941532 -118.394094 269 129ft 0kts
14-Aug-20 18:55 33.941532 -118.394094 269 129ft 0kts
14-Aug-20 18:56 33.941532 -118.394105 269 129ft 0kts
14-Aug-20 18:57 33.941532 -118.394106 269 129ft 0kts
14-Aug-20 18:58 33.941532 -118.394107 269 129ft 0kts
14-Aug-20 18:59 33.941532 -118.394108 269 129ft 0kts
14-Aug-20 19:00 33.941532 -118.394110 269 129ft 0kts
14-Aug-20 19:01 33.941532 -118.394111 269 129ft 0kts
14-Aug-20 19:02 33.941532 -118.394112 269 129ft 0kts
14-Aug-20 19:03 33.941532 -118.394113 269 129ft 0kts
14-Aug-20 19:04 33.941532 -118.394114 269 129ft 0kts
14-Aug-20 19:05 33.941532 -118.394115 269 129ft 0kts
14-Aug-20 19:06 33.941532 -118.394116 269 129ft 0kts
14-Aug-20 19:07 33.941532 -118.394118 269 129ft 0kts
14-Aug-20 19:08 33.940257 -118.393811 101 129ft 11kts
14-Aug-20 19:09 33.939859 -118.389990 84 129ft 19kts
14-Aug-20 19:10 33.940530 -118.383136 82 129ft 19kts
14-Aug-20 19:11 33.940614 -118.380468 124 129ft 0kts
14-Aug-20 19:12 33.940566 -118.380393 131 129ft 6kts
14-Aug-20 19:13 33.938685 -118.391872 262 265ft 93kts
14-Aug-20 19:14 33.932563 -118.425774 249 998ft 121kts
14-Aug-20 19:15 33.901911 -118.421907 163 1517ft 119kts
14-Aug-20 19:16 33.869355 -118.408306 162 1875ft 129kts
14-Aug-20 19:17 33.834680 -118.399691 178 2149ft 130kts
14-Aug-20 19:18 33.798652 -118.407530 202 2154ft 134kts
14-Aug-20 19:19 33.762015 -118.416171 183 2149ft 137kts
14-Aug-20 19:20 33.724054 -118.416677 183 2204ft 135kts
14-Aug-20 19:21 33.686742 -118.417055 183 2402ft 127kts
14-Aug-20 19:22 33.652710 -118.417444 183 2870ft 118kts
14-Aug-20 19:23 33.620254 -118.416987 180 3375ft 115kts
14-Aug-20 19:24 33.587774 -118.415942 181 3881ft 117kts
14-Aug-20 19:25 33.554949 -118.415160 182 4383ft 117kts
14-Aug-20 19:26 33.519916 -118.415987 182 4491ft 133kts
14-Aug-20 19:27 33.482247 -118.416890 182 4491ft 137kts
14-Aug-20 19:28 33.446024 -118.406523 144 4484ft 140kts
14-Aug-20 19:29 33.414470 -118.378872 145 4491ft 140kts
14-Aug-20 19:30 33.383005 -118.351288 145 4489ft 140kts
14-Aug-20 19:31 33.351521 -118.323836 146 4489ft 140kts
14-Aug-20 19:32 33.320233 -118.295933 138 4486ft 140kts
14-Aug-20 19:33 33.294121 -118.261270 127 4486ft 141kts
14-Aug-20 19:34 33.270278 -118.221983 125 4219ft 152kts
14-Aug-20 19:35 33.247168 -118.180286 125 4029ft 146kts
14-Aug-20 19:36 33.226121 -118.138938 118 3999ft 144kts
14-Aug-20 19:37 33.207624 -118.096569 119 3997ft 144kts
14-Aug-20 19:38 33.189040 -118.054276 118 3997ft 143kts
14-Aug-20 19:39 33.170306 -118.011916 121 3993ft 144kts
14-Aug-20 19:40 33.149615 -117.970523 121 3992ft 145kts
14-Aug-20 19:41 33.128767 -117.928714 121 3993ft 146kts
14-Aug-20 19:42 33.108085 -117.887026 121 3987ft 146kts
14-Aug-20 19:43 33.087556 -117.845111 121 3985ft 145kts
14-Aug-20 19:44 33.067109 -117.803146 121 3985ft 145kts
14-Aug-20 19:45 33.047319 -117.761885 121 3986ft 141kts
14-Aug-20 19:46 33.026145 -117.723013 127 3985ft 137kts
14-Aug-20 19:47 33.003344 -117.686750 127 3985ft 136kts
14-Aug-20 19:48 32.980694 -117.650800 127 3986ft 135kts
14-Aug-20 19:49 32.958834 -117.613973 117 3982ft 137kts
14-Aug-20 19:50 32.968530 -117.570251 72 3991ft 139kts
14-Aug-20 19:51 32.982143 -117.527091 72 3985ft 139kts
14-Aug-20 19:52 32.995776 -117.483748 71 3988ft 139kts
14-Aug-20 19:53 33.005387 -117.439541 84 3991ft 137kts
14-Aug-20 19:54 33.003491 -117.394829 101 3992ft 136kts
14-Aug-20 19:55 32.996783 -117.350038 101 3671ft 132kts
14-Aug-20 19:56 32.990062 -117.308785 101 3132ft 123kts
14-Aug-20 19:57 32.975679 -117.279270 143 2635ft 107kts
14-Aug-20 19:58 32.948968 -117.268216 172 2263ft 110kts
14-Aug-20 19:59 32.931148 -117.246241 55 1466ft 116kts
14-Aug-20 20:00 32.948221 -117.256058 251 1387ft 96kts
14-Aug-20 20:01 32.921327 -117.266338 176 1391ft 128kts
14-Aug-20 20:02 32.883890 -117.263787 176 1388ft 138kts
14-Aug-20 20:03 32.846448 -117.261109 174 1487ft 136kts
14-Aug-20 20:04 32.807942 -117.258365 175 1489ft 138kts
14-Aug-20 20:06 32.771575 -117.245360 150 1488ft 136kts
14-Aug-20 20:07 32.744436 -117.217522 83 1427ft 134kts
14-Aug-20 20:08 32.746063 -117.177713 99 1013ft 97kts
14-Aug-20 20:09 32.737587 -117.148411 125 956ft 94kts
14-Aug-20 20:10 32.726929 -117.162503 291 614ft 73kts
14-Aug-20 20:11 32.732086 -117.183709 292 18ft 30kts
14-Aug-20 20:12 32.733110 -117.183131 103 18ft 18kts
14-Aug-20 20:13 32.733771 -117.179214 82 18ft 8kts
14-Aug-20 20:14 32.733343 -117.178229 21 18ft 0kts
14-Aug-20 20:15 32.733344 -117.178229 21 18ft 0kts

Navigation Log

Ident Type
Flight plan parsing failed, navigation log unavailable